Mc Pherson, Kansas
Current Conditions -  °F | °C
As of 3:52 AM on Friday 19 Dec 2014 (Local Time) from KHUT Reporting Station
Haze Haze  
Wind Chill: 31°   Ceiling: 300
Heat Index: 31°   Visibility: 4mi
Dew Point: 28°   Wind: 0mph
Humidity: 89%   Direction: NA
Pressure: 30.21"   Gusts: NA
Location:  38.4089°N, 97.6556°W
Report Text: KHUT 190952Z AUTO 00000KT 4SM BR OVC003 M01/M02 A3021 RMK AO2 SLP236 T10061022
Loading
Personal Weather Stations






























Interactive Weather Map New forecast layout! Learn more

10-Day Weather Forecast

Advertisements
Track Severe Weather on mobile